DAL2098 KAUS-KBOS
Flight info
| Callsign | DAL2098 |
|---|---|
| Flight time | N/A |
| Altitude | 33000 |
| Route | ILEXY4 ZENZI IAH GUSTI Q22 RBV Q419 JFK ROBUC3 |
| Aircraft | A321/M-SDE3FGHIRWY/LB1 |
Departure
| Time | 2026-05-06 17:17 |
|---|---|
| Airport | Austin Bergstrom International Airport (KAUS) |
Arrival
| Time | N/A |
|---|---|
| Airport | Boston Logan International Airport (KBOS) |
| Time | Latitude | Longitude | Altitude | Speed | Heading |
|---|---|---|---|---|---|
| 2026-05-06 16:26 | 30.20151 | -97.66811 | 528 ft | 0 kts | 15° |
| 2026-05-06 17:02 | 30.20147 | -97.66812 | 527 ft | 2 kts | 16° |
| 2026-05-06 17:02 | 30.20129 | -97.66819 | 527 ft | 3 kts | 22° |
| 2026-05-06 17:02 | 30.20110 | -97.66828 | 527 ft | 3 kts | 31° |
| 2026-05-06 17:02 | 30.20094 | -97.66842 | 527 ft | 3 kts | 49° |
| 2026-05-06 17:03 | 30.20085 | -97.66859 | 527 ft | 3 kts | 89° |
| 2026-05-06 17:03 | 30.20085 | -97.66867 | 527 ft | 0 kts | 107° |
| 2026-05-06 17:07 | 30.20084 | -97.66864 | 527 ft | 2 kts | 107° |
| 2026-05-06 17:07 | 30.20076 | -97.66831 | 527 ft | 7 kts | 105° |
| 2026-05-06 17:08 | 30.20063 | -97.66764 | 527 ft | 11 kts | 99° |
| 2026-05-06 17:08 | 30.20031 | -97.66692 | 527 ft | 11 kts | 159° |
| 2026-05-06 17:08 | 30.19946 | -97.66689 | 527 ft | 13 kts | 180° |
| 2026-05-06 17:08 | 30.19855 | -97.66680 | 527 ft | 13 kts | 156° |
| 2026-05-06 17:09 | 30.19834 | -97.66584 | 527 ft | 13 kts | 89° |
| 2026-05-06 17:09 | 30.19836 | -97.66472 | 527 ft | 15 kts | 89° |
| 2026-05-06 17:09 | 30.19839 | -97.66349 | 527 ft | 16 kts | 89° |
| 2026-05-06 17:09 | 30.19841 | -97.66218 | 527 ft | 17 kts | 89° |
| 2026-05-06 17:10 | 30.19844 | -97.66078 | 527 ft | 17 kts | 88° |
| 2026-05-06 17:10 | 30.19817 | -97.65991 | 527 ft | 12 kts | 154° |
| 2026-05-06 17:10 | 30.19760 | -97.65985 | 527 ft | 13 kts | 179° |
| 2026-05-06 17:10 | 30.19636 | -97.65982 | 527 ft | 14 kts | 179° |
| 2026-05-06 17:11 | 30.19573 | -97.65981 | 527 ft | 14 kts | 179° |
| 2026-05-06 17:11 | 30.19478 | -97.65979 | 527 ft | 14 kts | 179° |
| 2026-05-06 17:11 | 30.19380 | -97.65977 | 527 ft | 14 kts | 178° |
| 2026-05-06 17:11 | 30.19279 | -97.65973 | 528 ft | 15 kts | 178° |
| 2026-05-06 17:12 | 30.19171 | -97.65969 | 527 ft | 16 kts | 178° |
| 2026-05-06 17:12 | 30.19057 | -97.65967 | 527 ft | 17 kts | 178° |
| 2026-05-06 17:12 | 30.18938 | -97.65964 | 528 ft | 17 kts | 179° |
| 2026-05-06 17:12 | 30.18817 | -97.65961 | 527 ft | 17 kts | 178° |
| 2026-05-06 17:13 | 30.18694 | -97.65957 | 527 ft | 18 kts | 179° |
| 2026-05-06 17:13 | 30.18571 | -97.65954 | 527 ft | 18 kts | 178° |
| 2026-05-06 17:13 | 30.18446 | -97.65951 | 527 ft | 18 kts | 179° |
| 2026-05-06 17:13 | 30.18321 | -97.65944 | 527 ft | 17 kts | 176° |
| 2026-05-06 17:14 | 30.18210 | -97.65944 | 527 ft | 16 kts | 179° |
| 2026-05-06 17:14 | 30.18104 | -97.65942 | 527 ft | 15 kts | 179° |
| 2026-05-06 17:14 | 30.18004 | -97.65939 | 527 ft | 14 kts | 178° |
| 2026-05-06 17:14 | 30.17927 | -97.65921 | 527 ft | 8 kts | 130° |
| 2026-05-06 17:15 | 30.17918 | -97.65857 | 527 ft | 8 kts | 90° |
| 2026-05-06 17:15 | 30.17918 | -97.65840 | 527 ft | 0 kts | 90° |
| 2026-05-06 17:15 | 30.17918 | -97.65839 | 527 ft | 1 kts | 90° |
| 2026-05-06 17:15 | 30.17918 | -97.65792 | 528 ft | 10 kts | 90° |
| 2026-05-06 17:16 | 30.17960 | -97.65729 | 527 ft | 16 kts | 356° |
| 2026-05-06 17:16 | 30.18284 | -97.65734 | 526 ft | 80 kts | 359° |
| 2026-05-06 17:16 | 30.19034 | -97.65753 | 530 ft | 134 kts | 358° |
| 2026-05-06 17:16 | 30.20108 | -97.65781 | 628 ft | 168 kts | 358° |
| 2026-05-06 17:17 | 30.21270 | -97.65778 | 1302 ft | 164 kts | 2° |
| 2026-05-06 17:17 | 30.22405 | -97.65787 | 2010 ft | 162 kts | 359° |
| 2026-05-06 17:17 | 30.23561 | -97.65826 | 2288 ft | 173 kts | 358° |
| 2026-05-06 17:17 | 30.24810 | -97.65882 | 2423 ft | 185 kts | 2° |
| 2026-05-06 17:18 | 30.26046 | -97.65412 | 2547 ft | 195 kts | 39° |
| 2026-05-06 17:18 | 30.26792 | -97.64076 | 2684 ft | 207 kts | 77° |
| 2026-05-06 17:18 | 30.27003 | -97.62428 | 2981 ft | 212 kts | 81° |
| 2026-05-06 17:18 | 30.27229 | -97.60694 | 3163 ft | 228 kts | 80° |
| 2026-05-06 17:19 | 30.27530 | -97.58821 | 3353 ft | 246 kts | 81° |
| 2026-05-06 17:19 | 30.27855 | -97.56800 | 3535 ft | 264 kts | 81° |
| 2026-05-06 17:19 | 30.28188 | -97.54685 | 4019 ft | 270 kts | 82° |
| 2026-05-06 17:19 | 30.28523 | -97.52530 | 4571 ft | 274 kts | 82° |
| 2026-05-06 17:20 | 30.28859 | -97.50346 | 5136 ft | 277 kts | 82° |
| 2026-05-06 17:20 | 30.29197 | -97.48132 | 5650 ft | 282 kts | 83° |
| 2026-05-06 17:20 | 30.29540 | -97.45880 | 6187 ft | 287 kts | 82° |
| 2026-05-06 17:20 | 30.29887 | -97.43594 | 6705 ft | 291 kts | 82° |
| 2026-05-06 17:21 | 30.30241 | -97.41266 | 7148 ft | 296 kts | 83° |
| 2026-05-06 17:21 | 30.30601 | -97.38901 | 7626 ft | 301 kts | 82° |
| 2026-05-06 17:21 | 30.30967 | -97.36504 | 8120 ft | 305 kts | 82° |
| 2026-05-06 17:21 | 30.31339 | -97.34059 | 8581 ft | 311 kts | 82° |
| 2026-05-06 17:22 | 30.31717 | -97.31578 | 9026 ft | 315 kts | 82° |
| 2026-05-06 17:22 | 30.32100 | -97.29057 | 9418 ft | 321 kts | 82° |
| 2026-05-06 17:22 | 30.32484 | -97.26527 | 9850 ft | 325 kts | 82° |
| 2026-05-06 17:22 | 30.32877 | -97.23900 | 10068 ft | 339 kts | 82° |
| 2026-05-06 17:23 | 30.33288 | -97.21148 | 10189 ft | 355 kts | 82° |
| 2026-05-06 17:23 | 30.33721 | -97.18268 | 10307 ft | 370 kts | 82° |
| 2026-05-06 17:23 | 30.34169 | -97.15277 | 10422 ft | 384 kts | 82° |
| 2026-05-06 17:23 | 30.34635 | -97.12180 | 10525 ft | 397 kts | 82° |
| 2026-05-06 17:24 | 30.35092 | -97.08982 | 10712 ft | 406 kts | 86° |
| 2026-05-06 17:24 | 30.35154 | -97.05717 | 11061 ft | 406 kts | 97° |
| 2026-05-06 17:24 | 30.34957 | -97.02443 | 11451 ft | 410 kts | 97° |
| 2026-05-06 17:24 | 30.34760 | -96.99142 | 11856 ft | 412 kts | 97° |
| 2026-05-06 17:25 | 30.34562 | -96.95819 | 12259 ft | 415 kts | 97° |
| 2026-05-06 17:25 | 30.34366 | -96.92472 | 12668 ft | 418 kts | 97° |
| 2026-05-06 17:25 | 30.34170 | -96.89089 | 13073 ft | 422 kts | 97° |
| 2026-05-06 17:25 | 30.33971 | -96.85691 | 13472 ft | 425 kts | 98° |
| 2026-05-06 17:26 | 30.33768 | -96.82274 | 13843 ft | 427 kts | 98° |
| 2026-05-06 17:26 | 30.33559 | -96.78830 | 14188 ft | 430 kts | 98° |
| 2026-05-06 17:26 | 30.33344 | -96.75370 | 14549 ft | 432 kts | 98° |
| 2026-05-06 17:26 | 30.33124 | -96.71891 | 14897 ft | 435 kts | 98° |
| 2026-05-06 17:27 | 30.32903 | -96.68390 | 15240 ft | 438 kts | 98° |
| 2026-05-06 17:27 | 30.32685 | -96.64912 | 15575 ft | 440 kts | 98° |
| 2026-05-06 17:27 | 30.32462 | -96.61367 | 15912 ft | 443 kts | 98° |
| 2026-05-06 17:27 | 30.32236 | -96.57799 | 16247 ft | 446 kts | 99° |
| 2026-05-06 17:28 | 30.32010 | -96.54213 | 16533 ft | 448 kts | 99° |
| 2026-05-06 17:28 | 30.31782 | -96.50606 | 16867 ft | 451 kts | 99° |
| 2026-05-06 17:28 | 30.31552 | -96.46974 | 17258 ft | 453 kts | 99° |
| 2026-05-06 17:28 | 30.31320 | -96.43337 | 17622 ft | 455 kts | 99° |
| 2026-05-06 17:29 | 30.31085 | -96.39675 | 17968 ft | 458 kts | 99° |
| 2026-05-06 17:29 | 30.30846 | -96.35986 | 18238 ft | 461 kts | 99° |
| 2026-05-06 17:29 | 30.30607 | -96.32278 | 18528 ft | 464 kts | 99° |
| 2026-05-06 17:29 | 30.30366 | -96.28548 | 18840 ft | 466 kts | 99° |
| 2026-05-06 17:30 | 30.30122 | -96.24795 | 19131 ft | 468 kts | 99° |
| 2026-05-06 17:30 | 30.29874 | -96.21032 | 19354 ft | 471 kts | 99° |
| 2026-05-06 17:30 | 30.29620 | -96.17247 | 19633 ft | 474 kts | 99° |
| 2026-05-06 17:30 | 30.29361 | -96.13440 | 19908 ft | 476 kts | 99° |
| 2026-05-06 17:31 | 30.29065 | -96.09619 | 20171 ft | 476 kts | 103° |
| 2026-05-06 17:31 | 30.28374 | -96.05891 | 20431 ft | 471 kts | 113° |
| 2026-05-06 17:31 | 30.27216 | -96.02372 | 20712 ft | 466 kts | 122° |
| 2026-05-06 17:31 | 30.25719 | -95.99069 | 20968 ft | 466 kts | 125° |
| 2026-05-06 17:32 | 30.24181 | -95.95761 | 21254 ft | 468 kts | 125° |
| 2026-05-06 17:32 | 30.22639 | -95.92434 | 21560 ft | 471 kts | 125° |
| 2026-05-06 17:32 | 30.21093 | -95.89091 | 21858 ft | 473 kts | 125° |
| 2026-05-06 17:32 | 30.19536 | -95.85727 | 22139 ft | 475 kts | 125° |
| 2026-05-06 17:33 | 30.17971 | -95.82353 | 22398 ft | 478 kts | 125° |
| 2026-05-06 17:33 | 30.16396 | -95.78959 | 22658 ft | 480 kts | 125° |
| 2026-05-06 17:33 | 30.14834 | -95.75594 | 22973 ft | 482 kts | 125° |
| 2026-05-06 17:33 | 30.13245 | -95.72173 | 23224 ft | 484 kts | 125° |
| 2026-05-06 17:34 | 30.11646 | -95.68733 | 23448 ft | 486 kts | 125° |
| 2026-05-06 17:34 | 30.10040 | -95.65278 | 23648 ft | 489 kts | 125° |
| 2026-05-06 17:34 | 30.08456 | -95.61878 | 23989 ft | 490 kts | 125° |
| 2026-05-06 17:34 | 30.06835 | -95.58398 | 24208 ft | 493 kts | 125° |
| 2026-05-06 17:35 | 30.05205 | -95.54897 | 24450 ft | 495 kts | 125° |
| 2026-05-06 17:35 | 30.03573 | -95.51401 | 24693 ft | 497 kts | 125° |
| 2026-05-06 17:35 | 30.01921 | -95.47874 | 24919 ft | 499 kts | 125° |
| 2026-05-06 17:36 | 29.98608 | -95.40803 | 25338 ft | 503 kts | 124° |
| 2026-05-06 17:36 | 29.97168 | -95.37087 | 25525 ft | 513 kts | 115° |
| 2026-05-06 17:36 | 29.96218 | -95.33087 | 25702 ft | 522 kts | 105° |
| 2026-05-06 17:36 | 29.95811 | -95.28968 | 25926 ft | 528 kts | 95° |
| 2026-05-06 17:37 | 29.95836 | -95.24713 | 26130 ft | 531 kts | 92° |
| 2026-05-06 17:37 | 29.95901 | -95.20455 | 26312 ft | 533 kts | 92° |
| 2026-05-06 17:37 | 29.95963 | -95.16171 | 26495 ft | 534 kts | 92° |
| 2026-05-06 17:37 | 29.96021 | -95.11882 | 26705 ft | 537 kts | 92° |
| 2026-05-06 17:38 | 29.96076 | -95.07572 | 26903 ft | 538 kts | 92° |
| 2026-05-06 17:38 | 29.96130 | -95.03250 | 27080 ft | 540 kts | 92° |
| 2026-05-06 17:38 | 29.96182 | -94.98906 | 27261 ft | 542 kts | 92° |
| 2026-05-06 17:38 | 29.96232 | -94.94559 | 27459 ft | 543 kts | 92° |
| 2026-05-06 17:39 | 29.96283 | -94.90211 | 27730 ft | 542 kts | 92° |
| 2026-05-06 17:39 | 29.96335 | -94.85863 | 27986 ft | 542 kts | 92° |
| 2026-05-06 17:39 | 29.96384 | -94.81504 | 28248 ft | 543 kts | 92° |
| 2026-05-06 17:39 | 29.96429 | -94.77159 | 28527 ft | 542 kts | 93° |
| 2026-05-06 17:40 | 29.96474 | -94.72811 | 28771 ft | 542 kts | 93° |
| 2026-05-06 17:40 | 29.96517 | -94.68457 | 29013 ft | 543 kts | 93° |
| 2026-05-06 17:40 | 29.96559 | -94.64113 | 29267 ft | 543 kts | 93° |
| 2026-05-06 17:40 | 29.96602 | -94.59745 | 29507 ft | 543 kts | 93° |
| 2026-05-06 17:41 | 29.96642 | -94.55455 | 29738 ft | 543 kts | 93° |
| 2026-05-06 17:41 | 29.96679 | -94.51090 | 29997 ft | 543 kts | 93° |
| 2026-05-06 17:41 | 29.96714 | -94.46732 | 30196 ft | 543 kts | 93° |
| 2026-05-06 17:41 | 29.96749 | -94.42374 | 30398 ft | 543 kts | 93° |
| 2026-05-06 17:42 | 29.96786 | -94.38026 | 30604 ft | 543 kts | 93° |
| 2026-05-06 17:42 | 29.96821 | -94.33671 | 30814 ft | 543 kts | 93° |
| 2026-05-06 17:42 | 29.96851 | -94.29316 | 31013 ft | 543 kts | 93° |
| 2026-05-06 17:42 | 29.96877 | -94.24959 | 31221 ft | 543 kts | 93° |
| 2026-05-06 17:43 | 29.96904 | -94.20600 | 31425 ft | 543 kts | 92° |
| 2026-05-06 17:43 | 29.96931 | -94.16245 | 31606 ft | 543 kts | 92° |
| 2026-05-06 17:43 | 29.96957 | -94.11944 | 31807 ft | 543 kts | 92° |
| 2026-05-06 17:43 | 29.96984 | -94.07588 | 31991 ft | 543 kts | 92° |
| 2026-05-06 17:44 | 29.97010 | -94.03235 | 32185 ft | 543 kts | 92° |
| 2026-05-06 17:44 | 29.97033 | -93.98885 | 32377 ft | 543 kts | 92° |
| 2026-05-06 17:44 | 29.97053 | -93.94529 | 32564 ft | 543 kts | 92° |
| 2026-05-06 17:44 | 29.97070 | -93.90178 | 32746 ft | 543 kts | 92° |
| 2026-05-06 17:45 | 29.97084 | -93.85824 | 32933 ft | 543 kts | 92° |
| 2026-05-06 17:45 | 29.97097 | -93.81469 | 32978 ft | 543 kts | 92° |
| 2026-05-06 17:45 | 29.97121 | -93.72775 | 32942 ft | 542 kts | 92° |
| 2026-05-06 17:46 | 29.97146 | -93.64064 | 32949 ft | 542 kts | 92° |
| 2026-05-06 17:46 | 29.97168 | -93.55385 | 32961 ft | 542 kts | 92° |
| 2026-05-06 17:47 | 29.97172 | -93.46696 | 32970 ft | 542 kts | 92° |
| 2026-05-06 17:47 | 29.97166 | -93.38007 | 32976 ft | 542 kts | 92° |
| 2026-05-06 17:48 | 29.97173 | -93.29322 | 32969 ft | 542 kts | 92° |
| 2026-05-06 17:48 | 29.97172 | -93.20683 | 32972 ft | 542 kts | 92° |
| 2026-05-06 17:49 | 29.97153 | -93.12004 | 32975 ft | 542 kts | 92° |
| 2026-05-06 17:49 | 29.97129 | -93.03319 | 32966 ft | 542 kts | 92° |
| 2026-05-06 17:50 | 29.97101 | -92.94630 | 32963 ft | 542 kts | 91° |
| 2026-05-06 17:50 | 29.98060 | -92.86024 | 32981 ft | 543 kts | 77° |
| 2026-05-06 17:51 | 29.99735 | -92.77526 | 32977 ft | 543 kts | 77° |
| 2026-05-06 17:51 | 30.01384 | -92.69016 | 32979 ft | 543 kts | 77° |
| 2026-05-06 17:52 | 30.03020 | -92.60495 | 32975 ft | 543 kts | 77° |
| 2026-05-06 17:52 | 30.04654 | -92.51980 | 32984 ft | 543 kts | 77° |
| 2026-05-06 17:53 | 30.06288 | -92.43465 | 32987 ft | 543 kts | 77° |
| 2026-05-06 17:53 | 30.07923 | -92.34935 | 32986 ft | 543 kts | 77° |
| 2026-05-06 17:54 | 30.09549 | -92.26423 | 33001 ft | 543 kts | 77° |
| 2026-05-06 17:54 | 30.11171 | -92.17892 | 32977 ft | 544 kts | 77° |
| 2026-05-06 17:55 | 30.12785 | -92.09356 | 32981 ft | 544 kts | 77° |
| 2026-05-06 17:55 | 30.14381 | -92.00864 | 32981 ft | 545 kts | 77° |
| 2026-05-06 17:56 | 30.15981 | -91.92318 | 32983 ft | 545 kts | 77° |
| 2026-05-06 17:56 | 30.17585 | -91.83754 | 32982 ft | 545 kts | 77° |
| 2026-05-06 17:57 | 30.19180 | -91.75196 | 32980 ft | 545 kts | 77° |
| 2026-05-06 17:57 | 30.20767 | -91.66633 | 32981 ft | 545 kts | 77° |
| 2026-05-06 17:58 | 30.22086 | -91.59516 | 32985 ft | 545 kts | 77° |
| 2026-05-06 17:58 | 30.23666 | -91.50943 | 32965 ft | 545 kts | 77° |
| 2026-05-06 17:59 | 30.25241 | -91.42374 | 32980 ft | 544 kts | 77° |
| 2026-05-06 17:59 | 30.26807 | -91.33810 | 32989 ft | 544 kts | 77° |
| 2026-05-06 18:00 | 30.28362 | -91.25252 | 32994 ft | 544 kts | 77° |
| 2026-05-06 18:00 | 30.29913 | -91.16684 | 32996 ft | 544 kts | 77° |
| 2026-05-06 18:01 | 30.31462 | -91.08116 | 32997 ft | 543 kts | 77° |
| 2026-05-06 18:01 | 30.33009 | -90.99557 | 32990 ft | 543 kts | 77° |
| 2026-05-06 18:02 | 30.34551 | -90.90989 | 32986 ft | 543 kts | 77° |
| 2026-05-06 18:02 | 30.36076 | -90.82431 | 32986 ft | 543 kts | 77° |
| 2026-05-06 18:03 | 30.37599 | -90.73866 | 32988 ft | 543 kts | 77° |
| 2026-05-06 18:03 | 30.39105 | -90.65368 | 33008 ft | 542 kts | 77° |
| 2026-05-06 18:04 | 30.40612 | -90.56808 | 33030 ft | 542 kts | 77° |
| 2026-05-06 18:04 | 30.42115 | -90.48242 | 33019 ft | 543 kts | 77° |
| 2026-05-06 18:05 | 30.43617 | -90.39669 | 33018 ft | 543 kts | 77° |
| 2026-05-06 18:05 | 30.45116 | -90.31092 | 33014 ft | 543 kts | 77° |
| 2026-05-06 18:06 | 30.46581 | -90.22644 | 33019 ft | 543 kts | 77° |
| 2026-05-06 18:06 | 30.48528 | -90.14085 | 33011 ft | 541 kts | 71° |
| 2026-05-06 18:07 | 30.50666 | -90.05723 | 33002 ft | 541 kts | 71° |
| 2026-05-06 18:07 | 30.52793 | -89.97363 | 33002 ft | 541 kts | 71° |
| 2026-05-06 18:08 | 30.54916 | -89.88997 | 33008 ft | 541 kts | 71° |
| 2026-05-06 18:08 | 30.57036 | -89.80629 | 33016 ft | 541 kts | 71° |
| 2026-05-06 18:09 | 30.59141 | -89.72312 | 33022 ft | 541 kts | 71° |
| 2026-05-06 18:09 | 30.61249 | -89.63943 | 33022 ft | 541 kts | 71° |
| 2026-05-06 18:10 | 30.63347 | -89.55562 | 33015 ft | 541 kts | 71° |
| 2026-05-06 18:10 | 30.65440 | -89.47178 | 33017 ft | 541 kts | 71° |
| 2026-05-06 18:11 | 30.67532 | -89.38779 | 33018 ft | 541 kts | 71° |
| 2026-05-06 18:11 | 30.69623 | -89.30387 | 33018 ft | 541 kts | 71° |
| 2026-05-06 18:12 | 30.71708 | -89.21992 | 33029 ft | 540 kts | 71° |
| 2026-05-06 18:12 | 30.73774 | -89.13645 | 33027 ft | 541 kts | 71° |
| 2026-05-06 18:13 | 30.75839 | -89.05242 | 33024 ft | 540 kts | 71° |
| 2026-05-06 18:13 | 30.77896 | -88.96842 | 33022 ft | 540 kts | 71° |
| 2026-05-06 18:14 | 30.79953 | -88.88442 | 33025 ft | 540 kts | 71° |
| 2026-05-06 18:14 | 30.82008 | -88.80030 | 33020 ft | 540 kts | 71° |
| 2026-05-06 18:15 | 30.84056 | -88.71630 | 33032 ft | 540 kts | 71° |
| 2026-05-06 18:15 | 30.86104 | -88.63214 | 33037 ft | 540 kts | 71° |
| 2026-05-06 18:16 | 30.88141 | -88.54802 | 33046 ft | 540 kts | 71° |
| 2026-05-06 18:16 | 30.90164 | -88.46384 | 33060 ft | 540 kts | 71° |
| 2026-05-06 18:17 | 30.92270 | -88.38067 | 33068 ft | 536 kts | 64° |
| 2026-05-06 18:17 | 30.95618 | -88.30428 | 33082 ft | 528 kts | 54° |
| 2026-05-06 18:18 | 30.99269 | -88.22997 | 33058 ft | 528 kts | 54° |
| 2026-05-06 18:18 | 31.02899 | -88.15555 | 33052 ft | 528 kts | 54° |
| 2026-05-06 18:19 | 31.06522 | -88.08102 | 33033 ft | 528 kts | 54° |
| 2026-05-06 18:19 | 31.10144 | -88.00628 | 33037 ft | 528 kts | 54° |
| 2026-05-06 18:20 | 31.13767 | -87.93165 | 33042 ft | 528 kts | 54° |
| 2026-05-06 18:20 | 31.17358 | -87.85747 | 33043 ft | 528 kts | 54° |
| 2026-05-06 18:21 | 31.20996 | -87.78223 | 33044 ft | 528 kts | 54° |
| 2026-05-06 18:21 | 31.24583 | -87.70792 | 33064 ft | 528 kts | 55° |
| 2026-05-06 18:22 | 31.28180 | -87.63302 | 33057 ft | 528 kts | 55° |
| 2026-05-06 18:22 | 31.32094 | -87.56100 | 33048 ft | 517 kts | 43° |
| 2026-05-06 18:23 | 31.36730 | -87.49701 | 33043 ft | 516 kts | 42° |
| 2026-05-06 18:23 | 31.41372 | -87.43278 | 33038 ft | 516 kts | 43° |
| 2026-05-06 18:24 | 31.45995 | -87.36848 | 33036 ft | 516 kts | 43° |